Petoskey, Michigan
Current Conditions -  °F | °C
As of 5:15 AM on Wednesday 26 Nov 2014 (Local Time) from KMGN Reporting Station
Overcast Overcast  
Wind Chill: 26°   Ceiling: 2700
Heat Index: 26°   Visibility: 10mi
Dew Point: 21°   Wind: 0mph
Humidity: 81%   Direction: NA
Pressure: 30.17"   Gusts: NA
Location:  45.38°N, 84.96°W
Report Text: KMGN 261015Z AUTO 00000KT 10SM SCT013 OVC027 M03/M06 A3017 RMK AO2 T10321061
Loading
Personal Weather Stations






























Interactive Weather Map New forecast layout! Learn more

10-Day Weather Forecast

Advertisements
Track Severe Weather on mobile